createdAt,value
2023-03-19T00:00:57.666Z,6.93
2023-03-19T00:03:48.414Z,9.20
2023-03-19T00:06:29.008Z,7.23
2023-03-19T00:09:12.529Z,5.17
2023-03-19T00:11:50.406Z,5.93
2023-03-19T00:14:30.877Z,5.90
2023-03-19T00:17:11.452Z,7.27
2023-03-19T00:19:45.667Z,7.83
2023-03-19T00:22:49.285Z,6.63
2023-03-19T00:25:22.034Z,5.40
2023-03-19T00:28:19.796Z,4.90
2023-03-19T00:31:01.744Z,5.27
2023-03-19T00:33:48.467Z,5.50
2023-03-19T00:36:27.568Z,9.30
2023-03-19T00:39:02.908Z,9.97
2023-03-19T00:41:52.911Z,10.63
2023-03-19T00:44:36.453Z,7.37
2023-03-19T00:47:35.047Z,5.27
2023-03-19T00:50:21.180Z,8.93
2023-03-19T00:52:52.563Z,8.30
2023-03-19T00:55:26.263Z,5.17
2023-03-19T00:58:10.634Z,8.30
2023-03-19T01:00:56.036Z,7.27
2023-03-19T01:03:34.107Z,6.73
2023-03-19T01:06:35.336Z,13.13
2023-03-19T01:09:27.477Z,9.40
2023-03-19T01:12:22.482Z,9.77
2023-03-19T01:15:03.252Z,14.90
2023-03-19T01:17:34.093Z,12.23
2023-03-19T01:20:16.930Z,11.67
2023-03-19T01:23:16.365Z,9.20
2023-03-19T01:25:50.756Z,10.20
2023-03-19T01:28:31.525Z,9.80
2023-03-19T01:31:05.936Z,8.67
2023-03-19T01:33:53.146Z,9.23
2023-03-19T01:36:45.075Z,8.87
2023-03-19T01:39:39.063Z,13.83
2023-03-19T01:42:38.540Z,7.93
2023-03-19T01:45:40.115Z,8.97
2023-03-19T01:48:45.612Z,7.30
2023-03-19T01:51:28.471Z,6.23
2023-03-19T01:54:35.363Z,7.17
2023-03-19T01:57:35.131Z,13.33
2023-03-19T02:00:42.792Z,6.60
2023-03-19T02:03:38.479Z,6.13
2023-03-19T02:06:38.502Z,8.07
2023-03-19T02:09:24.142Z,7.10
2023-03-19T02:12:08.602Z,5.53
2023-03-19T02:14:50.011Z,5.77
2023-03-19T02:17:21.792Z,7.17
2023-03-19T02:20:01.679Z,5.17
2023-03-19T02:22:34.410Z,5.30
2023-03-19T02:25:21.239Z,7.47
2023-03-19T02:28:16.503Z,8.17
2023-03-19T02:30:58.286Z,7.20
2023-03-19T02:34:04.628Z,7.50
2023-03-19T02:36:46.161Z,8.93
2023-03-19T02:39:36.831Z,4.87
2023-03-19T02:42:24.474Z,11.03
2023-03-19T02:45:04.947Z,7.23
2023-03-19T02:48:06.620Z,7.23
2023-03-19T02:50:53.956Z,6.70
2023-03-19T02:53:30.542Z,7.23
2023-03-19T02:56:01.406Z,6.77
2023-03-19T02:58:33.347Z,7.30
2023-03-19T03:01:22.167Z,10.13
2023-03-19T03:04:16.952Z,6.47
2023-03-19T03:07:03.753Z,7.10
2023-03-19T03:09:46.487Z,7.40
2023-03-19T03:12:27.537Z,6.83
2023-03-19T03:15:07.929Z,7.17
2023-03-19T03:18:26.521Z,7.07
2023-03-19T03:21:06.196Z,10.77
2023-03-19T03:23:46.053Z,7.50
2023-03-19T03:26:22.286Z,5.90
2023-03-19T03:29:00.223Z,9.90
2023-03-19T03:31:37.524Z,5.77
2023-03-19T03:34:27.437Z,7.10
2023-03-19T03:37:29.430Z,6.83
2023-03-19T03:40:09.938Z,9.00
2023-03-19T03:43:01.312Z,8.90
2023-03-19T03:45:33.696Z,5.53
2023-03-19T03:48:31.086Z,8.40
2023-03-19T03:51:20.979Z,6.90
2023-03-19T03:53:55.952Z,13.00
2023-03-19T03:56:33.829Z,4.83
2023-03-19T03:59:32.003Z,7.17
2023-03-19T04:02:10.833Z,7.00
2023-03-19T04:04:43.799Z,5.60
2023-03-19T04:07:34.390Z,5.93
2023-03-19T04:10:37.224Z,6.27
2023-03-19T04:13:21.280Z,9.87
2023-03-19T04:16:21.993Z,8.03
2023-03-19T04:19:13.209Z,8.77
2023-03-19T04:22:04.118Z,8.60
2023-03-19T04:24:41.890Z,5.43
2023-03-19T04:27:25.881Z,6.03
2023-03-19T04:30:07.090Z,7.87
2023-03-19T04:32:53.072Z,7.30
2023-03-19T04:35:25.589Z,8.70
2023-03-19T04:37:56.370Z,7.27
2023-03-19T04:40:40.901Z,7.07
2023-03-19T04:43:21.274Z,5.77
2023-03-19T04:46:02.552Z,7.30
2023-03-19T04:48:56.575Z,9.07
2023-03-19T04:51:28.565Z,6.47
2023-03-19T04:54:01.018Z,6.63
2023-03-19T04:56:53.996Z,6.17
2023-03-19T04:59:36.920Z,6.97
2023-03-19T05:02:37.292Z,6.40
2023-03-19T05:05:35.084Z,6.03
2023-03-19T05:08:31.218Z,7.67
2023-03-19T05:11:21.904Z,9.63
2023-03-19T05:14:25.336Z,6.83
2023-03-19T05:17:18.235Z,9.00
2023-03-19T05:20:16.303Z,7.87
2023-03-19T05:23:13.542Z,6.67
2023-03-19T05:26:00.641Z,8.17
2023-03-19T05:28:53.839Z,6.93
2023-03-19T05:31:57.960Z,5.67
2023-03-19T05:34:34.478Z,12.67
2023-03-19T05:37:15.274Z,5.73
2023-03-19T05:39:59.827Z,6.20
2023-03-19T05:42:50.226Z,8.30
2023-03-19T05:45:28.919Z,5.73
2023-03-19T05:48:21.346Z,5.57
2023-03-19T05:51:13.308Z,7.23
2023-03-19T05:53:46.841Z,6.90
2023-03-19T05:56:38.092Z,5.80
2023-03-19T05:59:37.690Z,8.20
2023-03-19T06:02:31.772Z,6.70
2023-03-19T06:05:25.011Z,10.37
2023-03-19T06:08:19.060Z,7.97
2023-03-19T06:11:04.917Z,7.93
2023-03-19T06:13:47.783Z,5.17
2023-03-19T06:16:26.336Z,7.13
2023-03-19T06:19:21.605Z,6.00
2023-03-19T06:22:02.897Z,8.70
2023-03-19T06:24:52.103Z,8.67
2023-03-19T06:27:31.617Z,6.70
2023-03-19T06:30:22.971Z,5.10
2023-03-19T06:32:58.907Z,8.43
2023-03-19T06:35:45.957Z,5.20
2023-03-19T06:38:48.840Z,6.73
2023-03-19T06:41:25.159Z,5.93
2023-03-19T06:44:02.706Z,7.43
2023-03-19T06:46:47.289Z,7.27
2023-03-19T06:49:33.642Z,6.33
2023-03-19T06:52:13.010Z,8.00
2023-03-19T06:54:44.578Z,6.67
2023-03-19T06:57:15.827Z,7.13
2023-03-19T07:00:09.732Z,8.53
2023-03-19T07:02:41.270Z,8.33
2023-03-19T07:05:13.547Z,9.97
2023-03-19T07:07:52.886Z,9.13
2023-03-19T07:11:29.029Z,7.30
2023-03-19T07:14:16.370Z,9.70
2023-03-19T07:16:59.659Z,7.43
2023-03-19T07:19:35.724Z,6.77
2023-03-19T07:22:08.178Z,6.50
2023-03-19T07:24:45.247Z,7.07
2023-03-19T07:27:26.133Z,9.43
2023-03-19T07:30:19.757Z,7.63
2023-03-19T07:32:53.620Z,6.47
2023-03-19T07:35:27.054Z,9.67
2023-03-19T07:38:08.139Z,6.97
2023-03-19T07:40:45.533Z,10.80
2023-03-19T07:43:33.975Z,8.10
2023-03-19T07:46:24.494Z,6.77
2023-03-19T07:49:19.720Z,8.20
2023-03-19T07:52:17.136Z,8.60
2023-03-19T07:54:51.257Z,7.50
2023-03-19T07:57:33.262Z,8.83
2023-03-19T08:00:48.957Z,6.30
2023-03-19T08:03:40.631Z,6.47
2023-03-19T08:06:12.309Z,6.70
2023-03-19T08:08:43.087Z,9.97
2023-03-19T08:11:33.656Z,6.90
2023-03-19T08:14:08.372Z,6.97
2023-03-19T08:16:41.752Z,8.03
2023-03-19T08:19:26.264Z,6.80
2023-03-19T08:21:57.304Z,6.77
2023-03-19T08:24:28.160Z,7.20
2023-03-19T08:27:10.786Z,6.77
2023-03-19T08:29:43.687Z,8.17
2023-03-19T08:32:17.020Z,10.57
2023-03-19T08:35:22.319Z,10.07
2023-03-19T08:37:58.512Z,7.50
2023-03-19T08:41:03.095Z,8.83
2023-03-19T08:43:53.453Z,6.40
2023-03-19T08:46:40.004Z,5.83
2023-03-19T08:49:22.937Z,5.83
2023-03-19T08:51:56.652Z,6.47
2023-03-19T08:54:32.794Z,7.67
2023-03-19T08:57:11.018Z,5.90
2023-03-19T08:59:45.970Z,6.23
2023-03-19T09:02:37.388Z,5.73
2023-03-19T09:05:29.807Z,5.50
2023-03-19T09:08:20.681Z,4.03
2023-03-19T09:10:54.319Z,4.80
2023-03-19T09:13:31.653Z,5.63
2023-03-19T09:16:14.933Z,3.73
2023-03-19T09:18:50.648Z,3.90
2023-03-19T09:21:53.967Z,3.50
2023-03-19T09:24:45.754Z,4.10
2023-03-19T09:27:17.297Z,4.07
2023-03-19T09:30:04.259Z,4.73
2023-03-19T09:32:37.669Z,4.53
2023-03-19T09:35:43.672Z,4.13
2023-03-19T09:38:57.656Z,5.43
2023-03-19T09:42:07.589Z,5.93
2023-03-19T09:44:53.336Z,4.40
2023-03-19T09:47:49.829Z,4.57
2023-03-19T09:50:39.384Z,5.10
2023-03-19T09:53:33.002Z,3.50
2023-03-19T09:56:19.655Z,4.13
2023-03-19T09:58:55.793Z,7.27
2023-03-19T10:01:37.705Z,4.07
2023-03-19T10:04:47.707Z,4.77
2023-03-19T10:07:40.466Z,4.23
2023-03-19T10:11:05.036Z,3.30
2023-03-19T10:14:28.564Z,4.10
2023-03-19T10:17:14.728Z,3.30
2023-03-19T10:20:08.662Z,2.80
2023-03-19T10:22:48.425Z,3.23
2023-03-19T10:25:41.495Z,3.73
2023-03-19T10:28:19.448Z,3.50
2023-03-19T10:31:26.694Z,3.57
2023-03-19T10:34:35.465Z,3.97
2023-03-19T10:37:23.881Z,5.27
2023-03-19T10:39:58.751Z,6.30
2023-03-19T10:42:55.680Z,3.50
2023-03-19T10:45:41.548Z,3.87
2023-03-19T10:48:33.859Z,4.93
2023-03-19T10:51:34.163Z,6.20
2023-03-19T10:54:26.158Z,4.73
2023-03-19T10:57:17.426Z,4.33
2023-03-19T11:00:02.319Z,5.80
2023-03-19T11:02:48.117Z,6.23
2023-03-19T11:05:36.396Z,3.20
2023-03-19T11:08:35.559Z,5.07
2023-03-19T11:11:07.733Z,5.73
2023-03-19T11:13:58.333Z,3.47
2023-03-19T11:16:33.963Z,3.37
2023-03-19T11:19:30.828Z,4.57
2023-03-19T11:22:25.064Z,6.57
2023-03-19T11:25:26.378Z,5.47
2023-03-19T11:28:05.614Z,2.70
2023-03-19T11:30:48.786Z,5.13
2023-03-19T11:33:57.687Z,3.60
2023-03-19T11:36:49.787Z,3.57
2023-03-19T11:39:59.835Z,5.87
2023-03-19T11:43:03.860Z,4.97
2023-03-19T11:45:57.910Z,3.17
2023-03-19T11:48:47.321Z,4.40
2023-03-19T11:51:33.182Z,4.73
2023-03-19T11:54:47.808Z,3.77
2023-03-19T11:58:10.161Z,4.33
2023-03-19T12:00:59.153Z,3.50
2023-03-19T12:04:34.681Z,5.57
2023-03-19T12:07:28.511Z,3.70
2023-03-19T12:10:22.701Z,5.03
2023-03-19T12:13:15.604Z,4.03
2023-03-19T12:16:20.686Z,3.03
2023-03-19T12:19:17.266Z,4.57
2023-03-19T12:22:22.127Z,4.80
2023-03-19T12:25:41.422Z,2.80
2023-03-19T12:28:41.465Z,3.00
2023-03-19T12:31:37.288Z,5.10
2023-03-19T12:34:42.718Z,3.33
2023-03-19T12:37:37.359Z,4.33
2023-03-19T12:40:39.732Z,5.47
2023-03-19T12:43:36.495Z,4.63
2023-03-19T12:46:15.971Z,3.73
2023-03-19T12:48:55.121Z,3.93
2023-03-19T12:51:37.823Z,4.67
2023-03-19T12:54:20.110Z,4.03
2023-03-19T12:57:37.383Z,4.07
2023-03-19T13:00:39.719Z,3.53
2023-03-19T13:03:27.756Z,2.70
2023-03-19T13:06:08.991Z,3.20
2023-03-19T13:08:55.894Z,3.87
2023-03-19T13:11:53.720Z,3.63
2023-03-19T13:14:47.067Z,3.77
2023-03-19T13:17:50.678Z,2.47
2023-03-19T13:20:48.966Z,4.17
2023-03-19T13:23:33.936Z,2.53
2023-03-19T13:26:37.010Z,3.57
2023-03-19T13:29:27.447Z,3.13
2023-03-19T13:32:38.999Z,3.87
2023-03-19T13:35:37.078Z,5.17
2023-03-19T13:38:36.862Z,4.23
2023-03-19T13:41:55.301Z,3.97
2023-03-19T13:44:58.170Z,3.03
2023-03-19T13:48:14.618Z,4.70
2023-03-19T13:51:08.343Z,2.97
2023-03-19T13:54:16.494Z,2.20
2023-03-19T13:57:34.105Z,2.43
2023-03-19T14:01:12.579Z,2.17
2023-03-19T14:04:08.447Z,2.60
2023-03-19T14:06:53.136Z,2.37
2023-03-19T14:09:43.793Z,3.37
2023-03-19T14:12:46.164Z,2.20
2023-03-19T14:15:33.175Z,3.23
2023-03-19T14:18:25.749Z,2.87
2023-03-19T14:21:36.812Z,3.00
2023-03-19T14:24:57.079Z,3.63
2023-03-19T14:27:35.513Z,3.57
2023-03-19T14:30:24.197Z,3.00
2023-03-19T14:33:07.272Z,3.03
2023-03-19T14:35:55.297Z,3.43
2023-03-19T14:39:05.425Z,2.67
2023-03-19T14:41:46.798Z,2.90
2023-03-19T14:45:28.843Z,2.00
2023-03-19T14:48:42.234Z,2.10
2023-03-19T14:52:04.273Z,2.77
2023-03-19T14:55:10.488Z,3.83
2023-03-19T14:57:49.628Z,2.07
2023-03-19T15:00:26.354Z,2.27
2023-03-19T15:03:32.492Z,3.23
2023-03-19T15:06:15.003Z,2.47
2023-03-19T15:08:56.961Z,2.20
2023-03-19T15:12:21.194Z,3.73
2023-03-19T15:15:23.352Z,3.97
2023-03-19T15:18:04.149Z,3.10
2023-03-19T15:20:46.014Z,5.53
2023-03-19T15:23:27.744Z,2.10
2023-03-19T15:26:24.970Z,2.77
2023-03-19T15:29:50.435Z,2.80
2023-03-19T15:32:54.444Z,2.73
2023-03-19T15:35:50.103Z,2.60
2023-03-19T15:38:41.084Z,3.70
2023-03-19T15:41:12.906Z,2.90
2023-03-19T15:43:50.932Z,2.50
2023-03-19T15:46:40.821Z,1.90
2023-03-19T15:49:42.799Z,2.10
2023-03-19T15:52:50.845Z,2.53
2023-03-19T15:55:49.751Z,2.47
2023-03-19T15:58:32.651Z,2.00
2023-03-19T16:01:12.739Z,2.30
2023-03-19T16:04:03.480Z,2.40
2023-03-19T16:06:54.168Z,3.93
2023-03-19T16:09:29.724Z,2.90
2023-03-19T16:12:51.372Z,2.10
2023-03-19T16:15:37.561Z,2.67
2023-03-19T16:18:31.185Z,2.00
2023-03-19T16:21:27.318Z,2.90
2023-03-19T16:24:31.571Z,2.33
2023-03-19T16:27:23.268Z,2.27
2023-03-19T16:30:01.873Z,1.70
2023-03-19T16:32:44.434Z,1.93
2023-03-19T16:35:20.354Z,2.80
2023-03-19T16:38:18.052Z,3.13
2023-03-19T16:41:43.058Z,3.10
2023-03-19T16:44:32.254Z,2.50
2023-03-19T16:47:19.512Z,3.87
2023-03-19T16:49:56.884Z,2.20
2023-03-19T16:52:37.683Z,2.13
2023-03-19T16:55:26.065Z,2.23
2023-03-19T16:58:18.805Z,3.37
2023-03-19T17:01:13.474Z,2.23
2023-03-19T17:03:45.503Z,2.47
2023-03-19T17:06:43.116Z,2.53
2023-03-19T17:09:16.325Z,2.97
2023-03-19T17:12:23.758Z,2.40
2023-03-19T17:15:38.241Z,2.63
2023-03-19T17:18:21.468Z,5.10
2023-03-19T17:21:07.932Z,4.87
2023-03-19T17:23:58.675Z,4.23
2023-03-19T17:26:33.795Z,3.63
2023-03-19T17:29:07.030Z,3.30
2023-03-19T17:31:52.251Z,6.10
2023-03-19T17:34:30.916Z,3.80
2023-03-19T17:37:33.888Z,3.20
2023-03-19T17:40:35.126Z,4.33
2023-03-19T17:43:12.019Z,1.90
2023-03-19T17:45:59.500Z,4.57
2023-03-19T17:48:55.392Z,2.10
2023-03-19T17:51:37.502Z,2.67
2023-03-19T17:54:27.590Z,4.57
2023-03-19T17:57:12.161Z,3.17
2023-03-19T18:00:07.044Z,4.57
2023-03-19T18:02:57.857Z,3.07
2023-03-19T18:05:42.039Z,2.87
2023-03-19T18:08:24.194Z,3.87
2023-03-19T18:11:00.217Z,2.90
2023-03-19T18:13:30.195Z,5.30
2023-03-19T18:16:23.351Z,4.63
2023-03-19T18:19:04.440Z,2.57
2023-03-19T18:22:36.633Z,2.60
2023-03-19T18:25:38.626Z,3.83
2023-03-19T18:28:23.494Z,2.00
2023-03-19T18:31:20.735Z,1.77
2023-03-19T18:34:05.847Z,2.13
2023-03-19T18:36:41.441Z,2.07
2023-03-19T18:39:39.069Z,2.10
2023-03-19T18:42:23.013Z,1.50
2023-03-19T18:45:20.978Z,1.53
2023-03-19T18:48:21.749Z,2.60
2023-03-19T18:51:08.856Z,2.60
2023-03-19T18:53:40.428Z,2.67
2023-03-19T18:56:29.305Z,1.50
2023-03-19T18:59:22.839Z,1.93
2023-03-19T19:02:02.152Z,3.30
2023-03-19T19:04:48.587Z,2.37
2023-03-19T19:07:46.079Z,2.63
2023-03-19T19:10:32.362Z,4.77
2023-03-19T19:13:35.096Z,1.50
2023-03-19T19:16:18.176Z,4.10
2023-03-19T19:19:02.545Z,2.90
2023-03-19T19:21:36.311Z,2.37
2023-03-19T19:24:25.922Z,5.20
2023-03-19T19:27:15.586Z,2.77
2023-03-19T19:29:53.514Z,2.07
2023-03-19T19:32:39.599Z,1.90
2023-03-19T19:35:23.086Z,3.87
2023-03-19T19:38:02.138Z,3.63
2023-03-19T19:40:37.798Z,2.47
2023-03-19T19:43:19.785Z,1.70
2023-03-19T19:46:39.058Z,1.70
2023-03-19T19:49:22.609Z,3.57
2023-03-19T19:52:16.531Z,3.30
2023-03-19T19:54:57.509Z,3.70
2023-03-19T19:57:53.027Z,2.37
2023-03-19T20:00:34.330Z,2.20
2023-03-19T20:03:40.966Z,2.13
2023-03-19T20:06:20.638Z,2.00
2023-03-19T20:09:10.579Z,3.57
2023-03-19T20:11:52.342Z,2.90
2023-03-19T20:14:33.448Z,2.20
2023-03-19T20:17:12.841Z,2.47
2023-03-19T20:20:10.268Z,3.73
2023-03-19T20:22:46.126Z,1.70
2023-03-19T20:25:26.965Z,2.30
2023-03-19T20:28:15.746Z,2.80
2023-03-19T20:30:57.218Z,2.90
2023-03-19T20:33:38.173Z,2.07
2023-03-19T20:36:22.665Z,2.80
2023-03-19T20:39:15.244Z,2.37
2023-03-19T20:41:52.030Z,3.37
2023-03-19T20:44:41.032Z,1.63
2023-03-19T20:47:28.326Z,3.10
2023-03-19T20:50:02.278Z,2.20
2023-03-19T20:52:48.105Z,2.93
2023-03-19T20:55:44.616Z,3.10
2023-03-19T20:58:23.371Z,2.83
2023-03-19T21:00:59.504Z,3.03
2023-03-19T21:03:36.915Z,1.77
2023-03-19T21:06:46.115Z,3.17
2023-03-19T21:09:32.494Z,2.50
2023-03-19T21:12:31.132Z,5.03
2023-03-19T21:15:22.036Z,4.23
2023-03-19T21:17:57.652Z,3.03
2023-03-19T21:20:37.018Z,2.37
2023-03-19T21:23:32.198Z,2.77
2023-03-19T21:26:22.524Z,2.40
2023-03-19T21:29:15.078Z,2.57
2023-03-19T21:31:56.494Z,2.17
2023-03-19T21:34:35.304Z,2.40
2023-03-19T21:37:12.143Z,2.50
2023-03-19T21:39:49.586Z,4.63
2023-03-19T21:43:00.050Z,3.10
2023-03-19T21:46:23.187Z,3.70
2023-03-19T21:49:06.674Z,2.40
2023-03-19T21:51:42.979Z,5.10
2023-03-19T21:54:31.639Z,5.67
2023-03-19T21:57:12.221Z,4.63
2023-03-19T21:59:48.076Z,3.60
2023-03-19T22:02:52.619Z,4.73
2023-03-19T22:05:27.662Z,5.03
2023-03-19T22:08:09.529Z,4.30
2023-03-19T22:10:46.267Z,3.67
2023-03-19T22:13:24.056Z,2.80
2023-03-19T22:15:59.213Z,3.30
2023-03-19T22:18:45.278Z,4.03
2023-03-19T22:21:25.759Z,4.10
2023-03-19T22:24:27.278Z,4.47
2023-03-19T22:27:19.779Z,6.50
2023-03-19T22:29:54.738Z,4.77
2023-03-19T22:32:52.586Z,5.63
2023-03-19T22:35:30.922Z,6.33
2023-03-19T22:38:22.348Z,4.20
2023-03-19T22:41:21.110Z,4.90
2023-03-19T22:43:53.779Z,5.43
2023-03-19T22:46:25.361Z,5.03
2023-03-19T22:49:47.085Z,5.93
2023-03-19T22:52:27.599Z,6.37
2023-03-19T22:55:23.253Z,4.13
2023-03-19T22:58:02.762Z,4.63
2023-03-19T23:00:55.087Z,4.50
2023-03-19T23:03:47.210Z,6.07
2023-03-19T23:06:30.858Z,4.00
2023-03-19T23:09:22.197Z,8.83
2023-03-19T23:11:56.650Z,5.60
2023-03-19T23:14:44.145Z,5.30
2023-03-19T23:17:25.651Z,7.83
2023-03-19T23:20:17.810Z,5.07
2023-03-19T23:23:33.977Z,4.57
2023-03-19T23:26:29.311Z,4.20
2023-03-19T23:29:06.704Z,4.23
2023-03-19T23:31:57.567Z,6.90
2023-03-19T23:34:39.841Z,4.70
2023-03-19T23:37:20.428Z,14.27
2023-03-19T23:40:02.023Z,7.43
2023-03-19T23:42:47.414Z,5.97
2023-03-19T23:45:36.307Z,4.67
2023-03-19T23:48:43.033Z,8.20
2023-03-19T23:51:31.116Z,6.97
2023-03-19T23:54:34.120Z,6.60
2023-03-19T23:57:28.766Z,9.23
